Hovedside
METAR-TAF:

METAR-TAF

Lufthavner :

Shanghai Pudong internasjonale lufthavn

Shanghai-Pudong, Kina

breddegrad: 31-07N, lengdegrad: 121-46E, høyde over havet: 4 m

Gjeldene værobservasjon

Denne rapporten ble laget for 39 minutter siden, klokken 16:30 UTC
Vind 4 kt fra Sør
Temperatur 27°C
Luftfuktighet 94%
Trykk 1001 hPa
Sikt 10 km eller mer
Brutte skyer i en høyde av 800 ft

METAR: ZSPD 231630Z 19002MPS 9999 BKN008 27/26 Q1001 NOSIG

Tid: 01:09 (17:09 UTC)

Varsel

Denne rapporten ble laget for 7 timer og 57 minutter siden, klokken 09:12 UTC
Varsel gyldig fra 23. klokken 12 UTC til 24. klokken 12 UTC
Vind 14 kt fra Sør-sørøst
Sikt: 6000 m
Brutte skyer i en høyde av 1200 ft

TAF: ZSPD 230912Z 2312/2412 15007MPS 6000 BKN012 TX33/2405Z TN26/2321Z

Værobservasjoner og værvarsel for over 4000 flyplasser (METAR- og TAF-rapporter).

Tilgjengelige stasjoner er representert av de røde og gule prikkene på kartet.

Hold musepekeren over prikken for å se navnet på stasjonen.

Klikk så for å se værobservasjoner og -varsler.

For å forandre kartet kan du klikke på den grønne knappen med svart kryss for å zoome inn, på den grønne knappen med strek for å zoome ut, eller på de grønne pilene for å se tilstøtende kart.


METAR-TAF: